DLH8MW EDDS-EDDH
Flight info
| Callsign | DLH8MW |
|---|---|
| Flight time | N/A |
| Altitude | 39000 |
| Route | OKIBA4H OKIBA N851 RIMKI Z99 LOHRE DCT MASEK DCT ELNAT/N0437F380 P605 NOLGO NOLGO3D |
| Aircraft | A320/M-SDE3FGHIRWY/LB1 |
Departure
| Time | 2026-05-01 15:08 |
|---|---|
| Airport | Stuttgart Airport (EDDS) |
Arrival
| Time | N/A |
|---|---|
| Airport | Hamburg Helmut Schmidt Airport (EDDH) |
| Time | Latitude | Longitude | Altitude | Speed | Heading |
|---|---|---|---|---|---|
| 2026-05-01 14:25 | 48.68926 | 9.19580 | 1315 ft | 0 kts | 344° |
| 2026-05-01 14:59 | 48.68925 | 9.19580 | 1314 ft | 1 kts | 344° |
| 2026-05-01 14:59 | 48.68902 | 9.19590 | 1313 ft | 4 kts | 344° |
| 2026-05-01 15:00 | 48.68857 | 9.19623 | 1310 ft | 4 kts | 281° |
| 2026-05-01 15:00 | 48.68860 | 9.19655 | 1309 ft | 4 kts | 253° |
| 2026-05-01 15:00 | 48.68868 | 9.19694 | 1309 ft | 4 kts | 251° |
| 2026-05-01 15:01 | 48.68877 | 9.19732 | 1308 ft | 4 kts | 249° |
| 2026-05-01 15:01 | 48.68887 | 9.19771 | 1307 ft | 4 kts | 248° |
| 2026-05-01 15:01 | 48.68897 | 9.19808 | 1306 ft | 4 kts | 246° |
| 2026-05-01 15:01 | 48.68909 | 9.19846 | 1306 ft | 4 kts | 244° |
| 2026-05-01 15:02 | 48.68921 | 9.19882 | 1305 ft | 32 kts | 242° |
| 2026-05-01 15:02 | 48.68925 | 9.19894 | 1305 ft | 38 kts | 240° |
| 2026-05-01 15:02 | 48.68937 | 9.19923 | 1304 ft | 0 kts | 238° |
| 2026-05-01 15:06 | 48.68920 | 9.19892 | 1303 ft | 9 kts | 216° |
| 2026-05-01 15:06 | 48.68826 | 9.19912 | 1298 ft | 10 kts | 153° |
| 2026-05-01 15:06 | 48.68746 | 9.19957 | 1293 ft | 11 kts | 166° |
| 2026-05-01 15:07 | 48.68705 | 9.19974 | 1290 ft | 5 kts | 163° |
| 2026-05-01 15:07 | 48.68660 | 9.19995 | 1287 ft | 9 kts | 163° |
| 2026-05-01 15:07 | 48.68592 | 9.20072 | 1283 ft | 16 kts | 106° |
| 2026-05-01 15:07 | 48.68609 | 9.20187 | 1280 ft | 13 kts | 76° |
| 2026-05-01 15:08 | 48.68676 | 9.20559 | 1275 ft | 73 kts | 74° |
| 2026-05-01 15:08 | 48.68877 | 9.21617 | 1260 ft | 135 kts | 73° |
| 2026-05-01 15:08 | 48.69184 | 9.23184 | 1531 ft | 159 kts | 73° |
| 2026-05-01 15:08 | 48.69482 | 9.24770 | 2317 ft | 158 kts | 75° |
| 2026-05-01 15:09 | 48.69780 | 9.26415 | 2863 ft | 171 kts | 76° |
| 2026-05-01 15:09 | 48.70113 | 9.28258 | 3218 ft | 193 kts | 77° |
| 2026-05-01 15:09 | 48.70493 | 9.30322 | 3614 ft | 213 kts | 75° |
| 2026-05-01 15:09 | 48.70912 | 9.32567 | 3933 ft | 232 kts | 76° |
| 2026-05-01 15:10 | 48.71356 | 9.34917 | 4041 ft | 234 kts | 77° |
| 2026-05-01 15:10 | 48.72279 | 9.39786 | 4582 ft | 254 kts | 77° |
| 2026-05-01 15:10 | 48.72767 | 9.42362 | 5409 ft | 262 kts | 77° |
| 2026-05-01 15:11 | 48.73281 | 9.45053 | 6348 ft | 268 kts | 76° |
| 2026-05-01 15:11 | 48.74846 | 9.50271 | 8085 ft | 285 kts | 47° |
| 2026-05-01 15:11 | 48.76492 | 9.51996 | 8979 ft | 294 kts | 24° |
| 2026-05-01 15:12 | 48.78505 | 9.52581 | 9875 ft | 301 kts | 360° |
| 2026-05-01 15:12 | 48.82915 | 9.52121 | 10809 ft | 339 kts | 356° |
| 2026-05-01 15:12 | 48.85307 | 9.51829 | 11487 ft | 347 kts | 356° |
| 2026-05-01 15:13 | 48.92611 | 9.50971 | 13979 ft | 355 kts | 357° |
| 2026-05-01 15:14 | 48.97483 | 9.49293 | 15396 ft | 365 kts | 337° |
| 2026-05-01 15:14 | 48.99779 | 9.47621 | 16048 ft | 369 kts | 336° |
| 2026-05-01 15:14 | 49.03123 | 9.45153 | 17027 ft | 375 kts | 335° |